TimeCST,TemperatureF,Dew PointF,Humidity,Sea Level PressureIn,VisibilityMPH,Wind Direction,Wind SpeedMPH,Gust SpeedMPH,PrecipitationIn,Events,Conditions,WindDirDegrees,DateUTC
12:53 AM,36.0,26.1,67,30.30,10.0,Calm,Calm,-,N/A,,Clear,0,2013-01-19 06:53:00
1:53 AM,37.0,26.1,65,30.29,10.0,Calm,Calm,-,N/A,,Clear,0,2013-01-19 07:53:00
2:53 AM,39.0,25.0,57,30.27,10.0,Calm,Calm,-,N/A,,Clear,0,2013-01-19 08:53:00
3:53 AM,39.9,24.1,53,30.26,10.0,Calm,Calm,-,N/A,,Clear,0,2013-01-19 09:53:00
4:53 AM,42.1,24.1,49,30.25,10.0,Calm,Calm,-,N/A,,Clear,0,2013-01-19 10:53:00
5:53 AM,42.1,26.1,53,30.25,10.0,Calm,Calm,-,N/A,,Clear,0,2013-01-19 11:53:00
6:53 AM,39.9,27.0,60,30.25,10.0,Calm,Calm,-,N/A,,Clear,0,2013-01-19 12:53:00
7:53 AM,44.1,30.0,58,30.25,10.0,Variable,3.5,-,N/A,,Clear,0,2013-01-19 13:53:00
8:53 AM,46.9,33.1,59,30.27,10.0,Calm,Calm,-,N/A,,Clear,0,2013-01-19 14:53:00
9:53 AM,51.1,33.1,50,30.28,10.0,Variable,3.5,-,N/A,,Clear,0,2013-01-19 15:53:00
10:53 AM,55.0,36.0,49,30.27,10.0,West,8.1,-,N/A,,Clear,260,2013-01-19 16:53:00
11:53 AM,57.0,36.0,45,30.24,10.0,Variable,5.8,-,N/A,,Clear,0,2013-01-19 17:53:00
12:53 PM,59.0,36.0,42,30.20,10.0,Variable,4.6,-,N/A,,Clear,0,2013-01-19 18:53:00
1:53 PM,60.1,36.0,41,30.17,10.0,Variable,3.5,-,N/A,,Clear,0,2013-01-19 19:53:00
2:53 PM,59.0,36.0,42,30.17,10.0,Variable,4.6,-,N/A,,Clear,0,2013-01-19 20:53:00
3:53 PM,60.1,36.0,41,30.16,10.0,Calm,Calm,-,N/A,,Clear,0,2013-01-19 21:53:00
4:53 PM,57.9,36.0,44,30.15,10.0,Calm,Calm,-,N/A,,Clear,0,2013-01-19 22:53:00
5:53 PM,55.0,37.0,51,30.16,10.0,Calm,Calm,-,N/A,,Clear,0,2013-01-19 23:53:00
6:53 PM,53.1,36.0,52,30.17,10.0,Calm,Calm,-,N/A,,Clear,0,2013-01-20 00:53:00
7:53 PM,48.0,36.0,63,30.19,10.0,Calm,Calm,-,N/A,,Clear,0,2013-01-20 01:53:00
8:53 PM,45.0,36.0,71,30.21,10.0,Calm,Calm,-,N/A,,Clear,0,2013-01-20 02:53:00
9:53 PM,39.9,35.1,83,30.21,10.0,Calm,Calm,-,N/A,,Clear,0,2013-01-20 03:53:00
10:53 PM,37.9,35.1,89,30.22,10.0,Calm,Calm,-,N/A,,Clear,0,2013-01-20 04:53:00
11:53 PM,35.1,32.0,89,30.21,10.0,Calm,Calm,-,N/A,,Clear,0,2013-01-20 05:53:00